sensor_id;sensor_type;location;lat;lon;timestamp;P1;durP1;ratioP1;P2;durP2;ratioP2
9438;SDS011;5176;42.622;25.386;2023-04-21T00:00:10;6.57;;;6.07;;
9438;SDS011;5176;42.622;25.386;2023-04-21T00:02:39;7.83;;;6.63;;
9438;SDS011;5176;42.622;25.386;2023-04-21T00:05:08;8.10;;;6.90;;
9438;SDS011;5176;42.622;25.386;2023-04-21T00:07:39;6.13;;;5.63;;
9438;SDS011;5176;42.622;25.386;2023-04-21T00:10:08;6.80;;;6.20;;
9438;SDS011;5176;42.622;25.386;2023-04-21T00:12:37;7.50;;;6.23;;
9438;SDS011;5176;42.622;25.386;2023-04-21T00:15:08;6.80;;;6.20;;
9438;SDS011;5176;42.622;25.386;2023-04-21T00:17:38;6.70;;;6.10;;
9438;SDS011;5176;42.622;25.386;2023-04-21T00:20:08;6.67;;;6.00;;
9438;SDS011;5176;42.622;25.386;2023-04-21T00:22:37;6.77;;;6.17;;
9438;SDS011;5176;42.622;25.386;2023-04-21T00:25:06;7.07;;;6.47;;
9438;SDS011;5176;42.622;25.386;2023-04-21T00:27:35;6.50;;;5.87;;
9438;SDS011;5176;42.622;25.386;2023-04-21T00:30:04;6.57;;;5.80;;
9438;SDS011;5176;42.622;25.386;2023-04-21T00:32:35;6.60;;;6.03;;
9438;SDS011;5176;42.622;25.386;2023-04-21T00:35:04;6.83;;;6.23;;
9438;SDS011;5176;42.622;25.386;2023-04-21T00:37:33;7.20;;;6.50;;
9438;SDS011;5176;42.622;25.386;2023-04-21T00:40:02;9.43;;;6.47;;
9438;SDS011;5176;42.622;25.386;2023-04-21T00:42:31;9.43;;;6.97;;
9438;SDS011;5176;42.622;25.386;2023-04-21T00:45:00;6.93;;;6.33;;
9438;SDS011;5176;42.622;25.386;2023-04-21T00:47:29;6.80;;;6.20;;
9438;SDS011;5176;42.622;25.386;2023-04-21T00:49:59;7.83;;;6.53;;
9438;SDS011;5176;42.622;25.386;2023-04-21T00:52:29;7.63;;;6.77;;
9438;SDS011;5176;42.622;25.386;2023-04-21T00:54:59;6.90;;;6.30;;
9438;SDS011;5176;42.622;25.386;2023-04-21T00:57:27;9.70;;;6.97;;
9438;SDS011;5176;42.622;25.386;2023-04-21T00:59:58;6.97;;;6.37;;
9438;SDS011;5176;42.622;25.386;2023-04-21T01:02:27;7.97;;;7.10;;
9438;SDS011;5176;42.622;25.386;2023-04-21T01:04:55;7.10;;;6.40;;
9438;SDS011;5176;42.622;25.386;2023-04-21T01:07:26;6.50;;;5.90;;
9438;SDS011;5176;42.622;25.386;2023-04-21T01:09:55;8.00;;;6.10;;
9438;SDS011;5176;42.622;25.386;2023-04-21T01:12:25;7.27;;;6.57;;
9438;SDS011;5176;42.622;25.386;2023-04-21T01:14:54;7.47;;;6.77;;
9438;SDS011;5176;42.622;25.386;2023-04-21T01:17:23;6.47;;;5.80;;
9438;SDS011;5176;42.622;25.386;2023-04-21T01:19:52;5.97;;;5.47;;
9438;SDS011;5176;42.622;25.386;2023-04-21T01:22:27;5.90;;;5.40;;
9438;SDS011;5176;42.622;25.386;2023-04-21T01:24:56;5.83;;;5.33;;
9438;SDS011;5176;42.622;25.386;2023-04-21T01:27:25;5.30;;;4.80;;
9438;SDS011;5176;42.622;25.386;2023-04-21T01:29:53;5.40;;;4.97;;
9438;SDS011;5176;42.622;25.386;2023-04-21T01:32:23;5.50;;;5.10;;
9438;SDS011;5176;42.622;25.386;2023-04-21T01:34:53;6.23;;;5.73;;
9438;SDS011;5176;42.622;25.386;2023-04-21T01:37:23;5.67;;;5.20;;
9438;SDS011;5176;42.622;25.386;2023-04-21T01:39:55;6.20;;;5.43;;
9438;SDS011;5176;42.622;25.386;2023-04-21T01:42:27;6.00;;;5.50;;
9438;SDS011;5176;42.622;25.386;2023-04-21T01:44:57;5.87;;;5.30;;
9438;SDS011;5176;42.622;25.386;2023-04-21T01:47:25;5.90;;;5.40;;
9438;SDS011;5176;42.622;25.386;2023-04-21T01:49:54;6.07;;;5.47;;
9438;SDS011;5176;42.622;25.386;2023-04-21T01:52:23;6.57;;;5.60;;
9438;SDS011;5176;42.622;25.386;2023-04-21T01:54:53;6.20;;;5.60;;
9438;SDS011;5176;42.622;25.386;2023-04-21T01:57:22;5.93;;;5.43;;
9438;SDS011;5176;42.622;25.386;2023-04-21T01:59:51;6.20;;;5.70;;
9438;SDS011;5176;42.622;25.386;2023-04-21T02:02:20;6.63;;;6.03;;
9438;SDS011;5176;42.622;25.386;2023-04-21T02:04:48;6.47;;;5.73;;
9438;SDS011;5176;42.622;25.386;2023-04-21T02:07:17;5.90;;;5.40;;
9438;SDS011;5176;42.622;25.386;2023-04-21T02:09:46;6.60;;;6.00;;
9438;SDS011;5176;42.622;25.386;2023-04-21T02:12:17;6.70;;;6.10;;
9438;SDS011;5176;42.622;25.386;2023-04-21T02:14:45;9.40;;;6.60;;
9438;SDS011;5176;42.622;25.386;2023-04-21T02:17:14;8.17;;;7.37;;
9438;SDS011;5176;42.622;25.386;2023-04-21T02:19:43;7.20;;;6.60;;
9438;SDS011;5176;42.622;25.386;2023-04-21T02:22:19;7.63;;;6.93;;
9438;SDS011;5176;42.622;25.386;2023-04-21T02:24:48;8.60;;;7.80;;
9438;SDS011;5176;42.622;25.386;2023-04-21T02:27:19;7.97;;;7.27;;
9438;SDS011;5176;42.622;25.386;2023-04-21T02:29:48;10.77;;;9.70;;
9438;SDS011;5176;42.622;25.386;2023-04-21T02:32:17;7.93;;;7.13;;
9438;SDS011;5176;42.622;25.386;2023-04-21T02:34:45;7.77;;;6.97;;
9438;SDS011;5176;42.622;25.386;2023-04-21T02:37:14;8.57;;;7.77;;
9438;SDS011;5176;42.622;25.386;2023-04-21T02:39:43;8.80;;;7.77;;
9438;SDS011;5176;42.622;25.386;2023-04-21T02:42:12;8.50;;;7.70;;
9438;SDS011;5176;42.622;25.386;2023-04-21T02:44:43;8.00;;;7.10;;
9438;SDS011;5176;42.622;25.386;2023-04-21T02:47:13;7.07;;;6.37;;
9438;SDS011;5176;42.622;25.386;2023-04-21T02:49:43;7.70;;;6.97;;
9438;SDS011;5176;42.622;25.386;2023-04-21T02:52:12;7.23;;;6.50;;
9438;SDS011;5176;42.622;25.386;2023-04-21T02:54:41;7.40;;;6.80;;
9438;SDS011;5176;42.622;25.386;2023-04-21T02:57:10;8.20;;;6.60;;
9438;SDS011;5176;42.622;25.386;2023-04-21T02:59:39;6.97;;;5.83;;
9438;SDS011;5176;42.622;25.386;2023-04-21T03:02:09;6.83;;;6.13;;
9438;SDS011;5176;42.622;25.386;2023-04-21T03:04:38;7.20;;;5.77;;
9438;SDS011;5176;42.622;25.386;2023-04-21T03:07:10;6.40;;;5.80;;
9438;SDS011;5176;42.622;25.386;2023-04-21T03:09:39;6.70;;;5.87;;
9438;SDS011;5176;42.622;25.386;2023-04-21T03:12:08;7.63;;;6.07;;
9438;SDS011;5176;42.622;25.386;2023-04-21T03:14:37;7.50;;;6.10;;
9438;SDS011;5176;42.622;25.386;2023-04-21T03:17:05;7.07;;;6.37;;
9438;SDS011;5176;42.622;25.386;2023-04-21T03:19:36;6.73;;;5.50;;
9438;SDS011;5176;42.622;25.386;2023-04-21T03:22:04;6.93;;;6.23;;
9438;SDS011;5176;42.622;25.386;2023-04-21T03:24:33;9.27;;;6.43;;
9438;SDS011;5176;42.622;25.386;2023-04-21T03:27:02;6.77;;;6.17;;
9438;SDS011;5176;42.622;25.386;2023-04-21T03:29:34;7.53;;;6.43;;
9438;SDS011;5176;42.622;25.386;2023-04-21T03:32:04;6.93;;;6.33;;
9438;SDS011;5176;42.622;25.386;2023-04-21T03:34:32;7.53;;;6.80;;
9438;SDS011;5176;42.622;25.386;2023-04-21T03:37:02;7.33;;;6.63;;
9438;SDS011;5176;42.622;25.386;2023-04-21T03:39:31;7.97;;;7.17;;
9438;SDS011;5176;42.622;25.386;2023-04-21T03:42:00;7.27;;;6.57;;
9438;SDS011;5176;42.622;25.386;2023-04-21T03:44:31;6.90;;;6.20;;
9438;SDS011;5176;42.622;25.386;2023-04-21T03:47:00;7.27;;;6.30;;
9438;SDS011;5176;42.622;25.386;2023-04-21T03:49:32;6.57;;;5.77;;
9438;SDS011;5176;42.622;25.386;2023-04-21T03:52:03;7.67;;;6.87;;
9438;SDS011;5176;42.622;25.386;2023-04-21T03:54:32;8.00;;;6.60;;
9438;SDS011;5176;42.622;25.386;2023-04-21T03:57:00;6.67;;;6.07;;
9438;SDS011;5176;42.622;25.386;2023-04-21T03:59:29;9.23;;;7.70;;
9438;SDS011;5176;42.622;25.386;2023-04-21T04:01:58;9.93;;;7.60;;
9438;SDS011;5176;42.622;25.386;2023-04-21T04:04:27;7.13;;;6.40;;
9438;SDS011;5176;42.622;25.386;2023-04-21T04:06:55;7.93;;;5.83;;
9438;SDS011;5176;42.622;25.386;2023-04-21T04:09:26;7.63;;;6.87;;
9438;SDS011;5176;42.622;25.386;2023-04-21T04:11:54;7.40;;;6.70;;
9438;SDS011;5176;42.622;25.386;2023-04-21T04:14:23;8.97;;;7.17;;
9438;SDS011;5176;42.622;25.386;2023-04-21T04:16:51;8.20;;;7.40;;
9438;SDS011;5176;42.622;25.386;2023-04-21T04:19:20;8.43;;;7.63;;
9438;SDS011;5176;42.622;25.386;2023-04-21T04:21:49;8.60;;;7.80;;
9438;SDS011;5176;42.622;25.386;2023-04-21T04:24:18;8.70;;;7.53;;
9438;SDS011;5176;42.622;25.386;2023-04-21T04:26:48;9.00;;;8.17;;
9438;SDS011;5176;42.622;25.386;2023-04-21T04:29:19;9.17;;;8.37;;
9438;SDS011;5176;42.622;25.386;2023-04-21T04:31:49;10.13;;;8.03;;
9438;SDS011;5176;42.622;25.386;2023-04-21T04:34:18;8.90;;;7.93;;
9438;SDS011;5176;42.622;25.386;2023-04-21T04:36:48;9.97;;;8.97;;
9438;SDS011;5176;42.622;25.386;2023-04-21T04:39:17;9.47;;;8.40;;
9438;SDS011;5176;42.622;25.386;2023-04-21T04:41:49;10.10;;;8.60;;
9438;SDS011;5176;42.622;25.386;2023-04-21T04:44:18;9.37;;;8.37;;
9438;SDS011;5176;42.622;25.386;2023-04-21T04:46:46;10.40;;;9.33;;
9438;SDS011;5176;42.622;25.386;2023-04-21T04:49:15;9.17;;;8.27;;
9438;SDS011;5176;42.622;25.386;2023-04-21T04:51:44;9.03;;;8.13;;
9438;SDS011;5176;42.622;25.386;2023-04-21T04:54:12;9.10;;;8.17;;
9438;SDS011;5176;42.622;25.386;2023-04-21T04:56:41;8.70;;;7.90;;
9438;SDS011;5176;42.622;25.386;2023-04-21T04:59:11;8.87;;;8.07;;
9438;SDS011;5176;42.622;25.386;2023-04-21T05:01:40;11.23;;;9.10;;
9438;SDS011;5176;42.622;25.386;2023-04-21T05:04:08;10.63;;;7.53;;
9438;SDS011;5176;42.622;25.386;2023-04-21T05:06:41;10.53;;;9.10;;
9438;SDS011;5176;42.622;25.386;2023-04-21T05:09:10;9.50;;;7.70;;
9438;SDS011;5176;42.622;25.386;2023-04-21T05:11:39;13.07;;;7.87;;
9438;SDS011;5176;42.622;25.386;2023-04-21T05:14:07;8.13;;;7.43;;
9438;SDS011;5176;42.622;25.386;2023-04-21T05:16:37;9.50;;;7.07;;
9438;SDS011;5176;42.622;25.386;2023-04-21T05:19:07;8.93;;;6.50;;
9438;SDS011;5176;42.622;25.386;2023-04-21T05:21:35;7.43;;;6.73;;
9438;SDS011;5176;42.622;25.386;2023-04-21T05:24:04;7.43;;;6.73;;
9438;SDS011;5176;42.622;25.386;2023-04-21T05:26:33;7.87;;;7.07;;
9438;SDS011;5176;42.622;25.386;2023-04-21T05:29:02;6.73;;;6.13;;
9438;SDS011;5176;42.622;25.386;2023-04-21T05:31:30;7.33;;;6.63;;
9438;SDS011;5176;42.622;25.386;2023-04-21T05:34:00;6.93;;;6.33;;
9438;SDS011;5176;42.622;25.386;2023-04-21T05:36:29;6.53;;;5.93;;
9438;SDS011;5176;42.622;25.386;2023-04-21T05:38:57;7.17;;;6.47;;
9438;SDS011;5176;42.622;25.386;2023-04-21T05:41:26;7.13;;;6.33;;
9438;SDS011;5176;42.622;25.386;2023-04-21T05:43:55;7.30;;;6.53;;
9438;SDS011;5176;42.622;25.386;2023-04-21T05:46:24;7.97;;;6.67;;
9438;SDS011;5176;42.622;25.386;2023-04-21T05:48:53;8.07;;;7.37;;
9438;SDS011;5176;42.622;25.386;2023-04-21T05:51:23;7.77;;;7.07;;
9438;SDS011;5176;42.622;25.386;2023-04-21T05:53:52;9.83;;;7.73;;
9438;SDS011;5176;42.622;25.386;2023-04-21T05:56:21;9.70;;;8.63;;
9438;SDS011;5176;42.622;25.386;2023-04-21T05:58:49;11.87;;;8.40;;
9438;SDS011;5176;42.622;25.386;2023-04-21T06:01:18;8.13;;;7.33;;
9438;SDS011;5176;42.622;25.386;2023-04-21T06:03:47;11.17;;;8.23;;
9438;SDS011;5176;42.622;25.386;2023-04-21T06:06:16;8.20;;;7.50;;
9438;SDS011;5176;42.622;25.386;2023-04-21T06:08:46;7.43;;;6.73;;
9438;SDS011;5176;42.622;25.386;2023-04-21T06:11:14;7.53;;;6.63;;
9438;SDS011;5176;42.622;25.386;2023-04-21T06:13:43;6.67;;;6.10;;
9438;SDS011;5176;42.622;25.386;2023-04-21T06:16:11;7.60;;;6.80;;
9438;SDS011;5176;42.622;25.386;2023-04-21T06:18:40;7.73;;;5.90;;
9438;SDS011;5176;42.622;25.386;2023-04-21T06:21:09;7.83;;;6.53;;
9438;SDS011;5176;42.622;25.386;2023-04-21T06:23:38;7.00;;;6.30;;
9438;SDS011;5176;42.622;25.386;2023-04-21T06:26:08;9.30;;;7.43;;
9438;SDS011;5176;42.622;25.386;2023-04-21T06:28:37;8.50;;;7.70;;
9438;SDS011;5176;42.622;25.386;2023-04-21T06:31:05;9.53;;;8.13;;
9438;SDS011;5176;42.622;25.386;2023-04-21T06:33:35;9.67;;;8.13;;
9438;SDS011;5176;42.622;25.386;2023-04-21T06:36:04;8.67;;;7.77;;
9438;SDS011;5176;42.622;25.386;2023-04-21T06:38:33;8.03;;;7.10;;
9438;SDS011;5176;42.622;25.386;2023-04-21T06:41:01;9.33;;;6.90;;
9438;SDS011;5176;42.622;25.386;2023-04-21T06:43:32;7.20;;;6.60;;
9438;SDS011;5176;42.622;25.386;2023-04-21T06:46:00;7.80;;;7.00;;
9438;SDS011;5176;42.622;25.386;2023-04-21T06:48:29;7.33;;;6.63;;
9438;SDS011;5176;42.622;25.386;2023-04-21T06:50:58;7.77;;;7.07;;
9438;SDS011;5176;42.622;25.386;2023-04-21T06:53:28;9.07;;;8.17;;
9438;SDS011;5176;42.622;25.386;2023-04-21T06:55:56;7.87;;;7.17;;
9438;SDS011;5176;42.622;25.386;2023-04-21T06:58:25;7.50;;;6.90;;
9438;SDS011;5176;42.622;25.386;2023-04-21T07:00:55;7.90;;;7.10;;
9438;SDS011;5176;42.622;25.386;2023-04-21T07:03:23;7.53;;;6.73;;
9438;SDS011;5176;42.622;25.386;2023-04-21T07:05:52;7.93;;;6.83;;
9438;SDS011;5176;42.622;25.386;2023-04-21T07:08:21;8.53;;;7.73;;
9438;SDS011;5176;42.622;25.386;2023-04-21T07:10:50;9.67;;;7.50;;
9438;SDS011;5176;42.622;25.386;2023-04-21T07:13:18;12.13;;;10.07;;
9438;SDS011;5176;42.622;25.386;2023-04-21T07:15:47;10.30;;;9.13;;
9438;SDS011;5176;42.622;25.386;2023-04-21T07:18:18;7.60;;;6.90;;
9438;SDS011;5176;42.622;25.386;2023-04-21T07:20:46;8.17;;;7.37;;
9438;SDS011;5176;42.622;25.386;2023-04-21T07:23:15;7.53;;;6.83;;
9438;SDS011;5176;42.622;25.386;2023-04-21T07:25:44;7.67;;;6.90;;
9438;SDS011;5176;42.622;25.386;2023-04-21T07:28:12;7.80;;;7.13;;
9438;SDS011;5176;42.622;25.386;2023-04-21T07:30:41;7.17;;;6.57;;
9438;SDS011;5176;42.622;25.386;2023-04-21T07:33:10;9.03;;;7.03;;
9438;SDS011;5176;42.622;25.386;2023-04-21T07:35:40;7.20;;;6.33;;
9438;SDS011;5176;42.622;25.386;2023-04-21T07:38:09;7.23;;;6.37;;
9438;SDS011;5176;42.622;25.386;2023-04-21T07:40:38;7.37;;;6.60;;
9438;SDS011;5176;42.622;25.386;2023-04-21T07:43:06;6.37;;;5.80;;
9438;SDS011;5176;42.622;25.386;2023-04-21T07:45:35;6.63;;;6.00;;
9438;SDS011;5176;42.622;25.386;2023-04-21T07:48:03;6.38;;;5.78;;
9438;SDS011;5176;42.622;25.386;2023-04-21T07:50:33;7.68;;;5.32;;
9438;SDS011;5176;42.622;25.386;2023-04-21T07:53:03;5.55;;;4.95;;
9438;SDS011;5176;42.622;25.386;2023-04-21T07:55:32;5.60;;;5.10;;
9438;SDS011;5176;42.622;25.386;2023-04-21T07:58:02;5.72;;;4.97;;
9438;SDS011;5176;42.622;25.386;2023-04-21T08:00:31;5.10;;;4.65;;
9438;SDS011;5176;42.622;25.386;2023-04-21T08:03:00;5.80;;;5.18;;
9438;SDS011;5176;42.622;25.386;2023-04-21T08:05:29;5.20;;;4.80;;
9438;SDS011;5176;42.622;25.386;2023-04-21T08:07:57;5.60;;;4.72;;
9438;SDS011;5176;42.622;25.386;2023-04-21T08:10:28;4.93;;;4.53;;
9438;SDS011;5176;42.622;25.386;2023-04-21T08:12:56;5.20;;;4.80;;
9438;SDS011;5176;42.622;25.386;2023-04-21T08:15:25;6.20;;;4.53;;
9438;SDS011;5176;42.622;25.386;2023-04-21T08:17:54;7.05;;;3.85;;
9438;SDS011;5176;42.622;25.386;2023-04-21T08:20:22;6.80;;;4.20;;
9438;SDS011;5176;42.622;25.386;2023-04-21T08:22:51;4.50;;;4.10;;
9438;SDS011;5176;42.622;25.386;2023-04-21T08:25:19;6.85;;;4.30;;
9438;SDS011;5176;42.622;25.386;2023-04-21T08:27:50;4.43;;;3.95;;
9438;SDS011;5176;42.622;25.386;2023-04-21T08:30:18;7.35;;;3.72;;
9438;SDS011;5176;42.622;25.386;2023-04-21T08:32:47;4.43;;;4.03;;
9438;SDS011;5176;42.622;25.386;2023-04-21T08:35:16;5.22;;;3.85;;
9438;SDS011;5176;42.622;25.386;2023-04-21T08:37:45;6.80;;;4.63;;
9438;SDS011;5176;42.622;25.386;2023-04-21T08:40:13;6.30;;;4.30;;
9438;SDS011;5176;42.622;25.386;2023-04-21T08:42:42;6.68;;;4.18;;
9438;SDS011;5176;42.622;25.386;2023-04-21T08:45:13;4.63;;;3.63;;
9438;SDS011;5176;42.622;25.386;2023-04-21T08:47:42;4.60;;;3.95;;
9438;SDS011;5176;42.622;25.386;2023-04-21T08:50:11;4.78;;;3.38;;
9438;SDS011;5176;42.622;25.386;2023-04-21T08:52:41;3.80;;;3.47;;
9438;SDS011;5176;42.622;25.386;2023-04-21T08:55:10;4.28;;;3.88;;
9438;SDS011;5176;42.622;25.386;2023-04-21T08:57:40;4.93;;;4.20;;
9438;SDS011;5176;42.622;25.386;2023-04-21T09:00:09;5.30;;;4.10;;
9438;SDS011;5176;42.622;25.386;2023-04-21T09:02:53;4.95;;;4.45;;
9438;SDS011;5176;42.622;25.386;2023-04-21T09:05:24;5.45;;;4.25;;
9438;SDS011;5176;42.622;25.386;2023-04-21T09:07:54;4.82;;;4.43;;
9438;SDS011;5176;42.622;25.386;2023-04-21T09:10:41;5.20;;;4.70;;
9438;SDS011;5176;42.622;25.386;2023-04-21T09:13:10;4.30;;;3.97;;
9438;SDS011;5176;42.622;25.386;2023-04-21T09:15:39;4.78;;;4.05;;
9438;SDS011;5176;42.622;25.386;2023-04-21T09:18:14;4.95;;;4.55;;
9438;SDS011;5176;42.622;25.386;2023-04-21T09:20:44;5.53;;;4.78;;
9438;SDS011;5176;42.622;25.386;2023-04-21T09:23:14;4.78;;;4.38;;
9438;SDS011;5176;42.622;25.386;2023-04-21T09:25:43;5.22;;;4.30;;
9438;SDS011;5176;42.622;25.386;2023-04-21T09:28:12;6.07;;;4.78;;
9438;SDS011;5176;42.622;25.386;2023-04-21T09:30:41;8.00;;;4.60;;
9438;SDS011;5176;42.622;25.386;2023-04-21T09:33:15;5.90;;;5.03;;
9438;SDS011;5176;42.622;25.386;2023-04-21T09:35:44;5.45;;;4.90;;
9438;SDS011;5176;42.622;25.386;2023-04-21T09:38:14;7.80;;;4.90;;
9438;SDS011;5176;42.622;25.386;2023-04-21T09:40:44;7.43;;;5.43;;
9438;SDS011;5176;42.622;25.386;2023-04-21T09:43:14;5.35;;;4.85;;
9438;SDS011;5176;42.622;25.386;2023-04-21T09:45:43;6.15;;;5.60;;
9438;SDS011;5176;42.622;25.386;2023-04-21T09:48:12;5.82;;;5.20;;
9438;SDS011;5176;42.622;25.386;2023-04-21T09:50:44;6.68;;;4.80;;
9438;SDS011;5176;42.622;25.386;2023-04-21T09:53:14;6.18;;;5.10;;
9438;SDS011;5176;42.622;25.386;2023-04-21T09:55:44;6.20;;;4.68;;
9438;SDS011;5176;42.622;25.386;2023-04-21T09:58:17;5.75;;;5.00;;
9438;SDS011;5176;42.622;25.386;2023-04-21T10:00:50;4.70;;;4.25;;
9438;SDS011;5176;42.622;25.386;2023-04-21T10:03:22;5.13;;;4.57;;
9438;SDS011;5176;42.622;25.386;2023-04-21T10:05:55;4.82;;;4.40;;
9438;SDS011;5176;42.622;25.386;2023-04-21T10:08:23;5.95;;;4.80;;
9438;SDS011;5176;42.622;25.386;2023-04-21T10:10:52;5.85;;;4.90;;
9438;SDS011;5176;42.622;25.386;2023-04-21T10:13:21;5.40;;;4.90;;
9438;SDS011;5176;42.622;25.386;2023-04-21T10:15:50;5.55;;;4.30;;
9438;SDS011;5176;42.622;25.386;2023-04-21T10:18:30;5.45;;;4.68;;
9438;SDS011;5176;42.622;25.386;2023-04-21T10:21:03;5.15;;;4.65;;
9438;SDS011;5176;42.622;25.386;2023-04-21T10:23:36;5.60;;;4.93;;
9438;SDS011;5176;42.622;25.386;2023-04-21T10:26:07;6.50;;;5.43;;
9438;SDS011;5176;42.622;25.386;2023-04-21T10:28:40;5.80;;;5.30;;
9438;SDS011;5176;42.622;25.386;2023-04-21T10:31:18;8.18;;;5.20;;
9438;SDS011;5176;42.622;25.386;2023-04-21T10:34:14;7.05;;;4.40;;
9438;SDS011;5176;42.622;25.386;2023-04-21T10:39:44;6.82;;;5.18;;
9438;SDS011;5176;42.622;25.386;2023-04-21T10:42:21;5.93;;;5.32;;
9438;SDS011;5176;42.622;25.386;2023-04-21T10:45:00;5.95;;;5.10;;
9438;SDS011;5176;42.622;25.386;2023-04-21T10:47:39;5.63;;;5.13;;
9438;SDS011;5176;42.622;25.386;2023-04-21T10:50:19;5.43;;;5.03;;
9438;SDS011;5176;42.622;25.386;2023-04-21T10:52:51;5.80;;;5.13;;
9438;SDS011;5176;42.622;25.386;2023-04-21T10:55:24;6.03;;;5.43;;
9438;SDS011;5176;42.622;25.386;2023-04-21T10:57:55;5.85;;;5.25;;
9438;SDS011;5176;42.622;25.386;2023-04-21T11:00:28;8.05;;;5.30;;
9438;SDS011;5176;42.622;25.386;2023-04-21T11:02:58;5.70;;;5.20;;
9438;SDS011;5176;42.622;25.386;2023-04-21T11:05:31;6.05;;;5.45;;
9438;SDS011;5176;42.622;25.386;2023-04-21T11:08:06;5.80;;;5.20;;
9438;SDS011;5176;42.622;25.386;2023-04-21T11:10:45;5.75;;;5.13;;
9438;SDS011;5176;42.622;25.386;2023-04-21T11:13:16;5.68;;;5.10;;
9438;SDS011;5176;42.622;25.386;2023-04-21T11:16:01;6.10;;;5.45;;
9438;SDS011;5176;42.622;25.386;2023-04-21T11:18:41;5.93;;;5.25;;
9438;SDS011;5176;42.622;25.386;2023-04-21T11:21:13;5.63;;;5.13;;
9438;SDS011;5176;42.622;25.386;2023-04-21T11:23:49;5.72;;;5.22;;
9438;SDS011;5176;42.622;25.386;2023-04-21T11:26:28;6.22;;;5.63;;
9438;SDS011;5176;42.622;25.386;2023-04-21T11:28:59;6.70;;;5.20;;
9438;SDS011;5176;42.622;25.386;2023-04-21T11:31:31;6.63;;;5.95;;
9438;SDS011;5176;42.622;25.386;2023-04-21T11:34:02;5.97;;;4.93;;
9438;SDS011;5176;42.622;25.386;2023-04-21T11:36:34;8.85;;;5.57;;
9438;SDS011;5176;42.622;25.386;2023-04-21T11:39:04;7.93;;;5.43;;
9438;SDS011;5176;42.622;25.386;2023-04-21T11:41:35;5.85;;;5.35;;
9438;SDS011;5176;42.622;25.386;2023-04-21T11:44:06;5.63;;;5.13;;
9438;SDS011;5176;42.622;25.386;2023-04-21T11:46:35;6.85;;;5.45;;
9438;SDS011;5176;42.622;25.386;2023-04-21T11:49:05;5.40;;;4.90;;
9438;SDS011;5176;42.622;25.386;2023-04-21T11:51:36;6.00;;;5.28;;
9438;SDS011;5176;42.622;25.386;2023-04-21T11:54:07;6.50;;;5.88;;
9438;SDS011;5176;42.622;25.386;2023-04-21T11:56:37;5.88;;;5.25;;
9438;SDS011;5176;42.622;25.386;2023-04-21T11:59:07;7.03;;;4.90;;
9438;SDS011;5176;42.622;25.386;2023-04-21T12:01:42;7.60;;;5.15;;
9438;SDS011;5176;42.622;25.386;2023-04-21T12:04:13;5.63;;;5.13;;
9438;SDS011;5176;42.622;25.386;2023-04-21T12:06:44;9.15;;;5.10;;
9438;SDS011;5176;42.622;25.386;2023-04-21T12:09:16;5.95;;;5.30;;
9438;SDS011;5176;42.622;25.386;2023-04-21T12:11:46;6.40;;;5.03;;
9438;SDS011;5176;42.622;25.386;2023-04-21T12:14:16;6.80;;;4.63;;
9438;SDS011;5176;42.622;25.386;2023-04-21T12:16:47;6.47;;;4.68;;
9438;SDS011;5176;42.622;25.386;2023-04-21T12:19:22;7.00;;;4.82;;
9438;SDS011;5176;42.622;25.386;2023-04-21T12:21:54;5.28;;;4.65;;
9438;SDS011;5176;42.622;25.386;2023-04-21T12:24:23;5.38;;;4.88;;
9438;SDS011;5176;42.622;25.386;2023-04-21T12:26:52;5.90;;;4.57;;
9438;SDS011;5176;42.622;25.386;2023-04-21T12:29:21;5.70;;;4.65;;
9438;SDS011;5176;42.622;25.386;2023-04-21T12:31:49;6.32;;;4.78;;
9438;SDS011;5176;42.622;25.386;2023-04-21T12:34:18;6.63;;;4.75;;
9438;SDS011;5176;42.622;25.386;2023-04-21T12:36:47;5.72;;;4.78;;
9438;SDS011;5176;42.622;25.386;2023-04-21T12:39:17;6.45;;;5.30;;
9438;SDS011;5176;42.622;25.386;2023-04-21T12:41:47;6.75;;;5.00;;
9438;SDS011;5176;42.622;25.386;2023-04-21T12:44:16;5.22;;;4.80;;
9438;SDS011;5176;42.622;25.386;2023-04-21T12:46:44;7.20;;;4.50;;
9438;SDS011;5176;42.622;25.386;2023-04-21T12:49:14;4.88;;;4.45;;
9438;SDS011;5176;42.622;25.386;2023-04-21T12:51:43;5.55;;;4.20;;
9438;SDS011;5176;42.622;25.386;2023-04-21T12:54:12;10.65;;;5.10;;
9438;SDS011;5176;42.622;25.386;2023-04-21T12:56:43;6.55;;;5.28;;
9438;SDS011;5176;42.622;25.386;2023-04-21T12:59:12;8.65;;;6.53;;
9438;SDS011;5176;42.622;25.386;2023-04-21T13:01:40;9.15;;;5.18;;
9438;SDS011;5176;42.622;25.386;2023-04-21T13:04:10;4.53;;;4.13;;
9438;SDS011;5176;42.622;25.386;2023-04-21T13:06:39;4.57;;;4.18;;
9438;SDS011;5176;42.622;25.386;2023-04-21T13:09:07;5.07;;;4.32;;
9438;SDS011;5176;42.622;25.386;2023-04-21T13:11:36;4.88;;;4.38;;
9438;SDS011;5176;42.622;25.386;2023-04-21T13:14:07;7.13;;;4.38;;
9438;SDS011;5176;42.622;25.386;2023-04-21T13:16:36;6.18;;;4.03;;
9438;SDS011;5176;42.622;25.386;2023-04-21T13:19:04;5.88;;;4.25;;
9438;SDS011;5176;42.622;25.386;2023-04-21T13:21:33;5.55;;;4.40;;
9438;SDS011;5176;42.622;25.386;2023-04-21T13:24:01;4.95;;;4.22;;
9438;SDS011;5176;42.622;25.386;2023-04-21T13:26:30;7.38;;;4.57;;
9438;SDS011;5176;42.622;25.386;2023-04-21T13:29:00;5.68;;;4.78;;
9438;SDS011;5176;42.622;25.386;2023-04-21T13:31:30;5.85;;;4.72;;
9438;SDS011;5176;42.622;25.386;2023-04-21T13:33:59;9.13;;;4.82;;
9438;SDS011;5176;42.622;25.386;2023-04-21T13:36:28;4.93;;;4.40;;
9438;SDS011;5176;42.622;25.386;2023-04-21T13:38:58;5.20;;;4.80;;
9438;SDS011;5176;42.622;25.386;2023-04-21T13:41:26;6.18;;;4.65;;
9438;SDS011;5176;42.622;25.386;2023-04-21T13:43:55;5.70;;;4.63;;
9438;SDS011;5176;42.622;25.386;2023-04-21T13:46:24;5.20;;;4.70;;
9438;SDS011;5176;42.622;25.386;2023-04-21T13:48:55;8.00;;;4.78;;
9438;SDS011;5176;42.622;25.386;2023-04-21T13:51:23;6.40;;;4.65;;
9438;SDS011;5176;42.622;25.386;2023-04-21T13:53:53;6.47;;;5.00;;
9438;SDS011;5176;42.622;25.386;2023-04-21T13:56:21;5.47;;;4.53;;
9438;SDS011;5176;42.622;25.386;2023-04-21T13:58:50;4.35;;;3.75;;
9438;SDS011;5176;42.622;25.386;2023-04-21T14:01:20;5.20;;;4.70;;
9438;SDS011;5176;42.622;25.386;2023-04-21T14:03:49;7.38;;;4.53;;
9438;SDS011;5176;42.622;25.386;2023-04-21T14:06:19;6.18;;;4.38;;
9438;SDS011;5176;42.622;25.386;2023-04-21T14:08:48;5.80;;;4.43;;
9438;SDS011;5176;42.622;25.386;2023-04-21T14:11:16;6.28;;;4.82;;
9438;SDS011;5176;42.622;25.386;2023-04-21T14:13:45;9.98;;;4.63;;
9438;SDS011;5176;42.622;25.386;2023-04-21T14:16:14;7.40;;;4.80;;
9438;SDS011;5176;42.622;25.386;2023-04-21T14:18:42;5.30;;;4.15;;
9438;SDS011;5176;42.622;25.386;2023-04-21T14:21:11;6.95;;;4.60;;
9438;SDS011;5176;42.622;25.386;2023-04-21T14:23:41;7.07;;;4.45;;
9438;SDS011;5176;42.622;25.386;2023-04-21T14:26:10;5.60;;;4.10;;
9438;SDS011;5176;42.622;25.386;2023-04-21T14:28:38;4.82;;;4.30;;
9438;SDS011;5176;42.622;25.386;2023-04-21T14:31:07;4.35;;;3.92;;
9438;SDS011;5176;42.622;25.386;2023-04-21T14:33:35;5.95;;;4.50;;
9438;SDS011;5176;42.622;25.386;2023-04-21T14:36:04;7.68;;;6.35;;
9438;SDS011;5176;42.622;25.386;2023-04-21T14:38:33;6.97;;;4.53;;
9438;SDS011;5176;42.622;25.386;2023-04-21T14:41:03;6.43;;;4.13;;
9438;SDS011;5176;42.622;25.386;2023-04-21T14:43:32;5.55;;;4.07;;
9438;SDS011;5176;42.622;25.386;2023-04-21T14:46:01;7.28;;;4.72;;
9438;SDS011;5176;42.622;25.386;2023-04-21T14:48:29;5.90;;;4.20;;
9438;SDS011;5176;42.622;25.386;2023-04-21T14:50:59;5.70;;;4.38;;
9438;SDS011;5176;42.622;25.386;2023-04-21T14:53:27;5.28;;;4.20;;
9438;SDS011;5176;42.622;25.386;2023-04-21T14:55:57;5.53;;;4.22;;
9438;SDS011;5176;42.622;25.386;2023-04-21T14:58:27;4.47;;;3.97;;
9438;SDS011;5176;42.622;25.386;2023-04-21T15:00:55;6.45;;;4.50;;
9438;SDS011;5176;42.622;25.386;2023-04-21T15:03:24;4.97;;;3.92;;
9438;SDS011;5176;42.622;25.386;2023-04-21T15:05:52;8.82;;;4.95;;
9438;SDS011;5176;42.622;25.386;2023-04-21T15:08:21;7.00;;;4.40;;
9438;SDS011;5176;42.622;25.386;2023-04-21T15:10:50;9.45;;;4.82;;
9438;SDS011;5176;42.622;25.386;2023-04-21T15:13:19;4.90;;;4.03;;
9438;SDS011;5176;42.622;25.386;2023-04-21T15:15:49;8.35;;;4.18;;
9438;SDS011;5176;42.622;25.386;2023-04-21T15:18:18;5.85;;;3.95;;